Terminal Aerodrome Forecast
Issued by NWS

Home | Current Version | Previous Version | Text Only | Print | Product List | Glossary On
Versions: 1 2 3 4 5 6 7 8 9 10 11 12 13 14 15 16 17 18
000
FTUS44 KCRP 041120
TAFALI
TAF
KALI 041120Z 0412/0512 15006KT P6SM BKN015 BKN025
      TEMPO 0412/0414 5SM BR SCT015
     FM041400 15014KT P6SM VCSH SCT030
      TEMPO 0414/0416 BKN030
     FM042100 14015G22KT P6SM SCT040 BKN250
     FM050100 14010KT P6SM FEW015
     FM050700 15008KT P6SM BKN015=

USA.gov is the U.S. government's official web portal to all federal, state and local government web resources and services.